createdAt,value
2022-07-26T00:01:05.210Z,21.60
2022-07-26T00:03:33.678Z,21.60
2022-07-26T00:06:01.722Z,21.70
2022-07-26T00:08:31.079Z,21.80
2022-07-26T00:10:59.290Z,21.90
2022-07-26T00:13:30.240Z,22.10
2022-07-26T00:15:58.798Z,22.20
2022-07-26T00:18:27.434Z,22.20
2022-07-26T00:20:55.915Z,22.20
2022-07-26T00:23:23.954Z,22.30
2022-07-26T00:25:53.230Z,22.20
2022-07-26T00:28:21.191Z,22.20
2022-07-26T00:30:49.364Z,22.20
2022-07-26T00:33:17.428Z,22.10
2022-07-26T00:35:45.557Z,22.00
2022-07-26T00:38:13.572Z,22.00
2022-07-26T00:40:41.510Z,21.90
2022-07-26T00:43:10.804Z,21.90
2022-07-26T00:45:38.898Z,21.90
2022-07-26T00:48:07.846Z,21.80
2022-07-26T00:50:36.262Z,21.80
2022-07-26T00:53:04.637Z,21.90
2022-07-26T00:55:33.342Z,22.00
2022-07-26T00:58:02.182Z,22.00
2022-07-26T01:00:31.557Z,22.10
2022-07-26T01:03:01.217Z,22.10
2022-07-26T01:05:29.971Z,22.10
2022-07-26T01:07:58.859Z,22.00
2022-07-26T01:10:27.312Z,22.00
2022-07-26T01:12:55.320Z,22.00
2022-07-26T01:15:23.623Z,22.00
2022-07-26T01:17:52.887Z,22.10
2022-07-26T01:20:20.940Z,22.00
2022-07-26T01:22:50.262Z,22.10
2022-07-26T01:25:18.238Z,22.00
2022-07-26T01:27:46.266Z,22.00
2022-07-26T01:30:15.428Z,22.10
2022-07-26T01:32:43.533Z,22.10
2022-07-26T01:35:11.956Z,22.10
2022-07-26T01:37:39.886Z,22.20
2022-07-26T01:40:11.565Z,22.40
2022-07-26T01:42:40.903Z,22.40
2022-07-26T01:45:10.214Z,22.50
2022-07-26T01:47:39.056Z,22.50
2022-07-26T01:50:09.470Z,22.50
2022-07-26T01:52:39.175Z,22.40
2022-07-26T01:55:09.008Z,22.50
2022-07-26T01:57:37.116Z,22.50
2022-07-26T02:00:07.197Z,22.40
2022-07-26T02:02:35.668Z,22.20
2022-07-26T02:05:03.900Z,22.10
2022-07-26T02:07:38.108Z,22.10
2022-07-26T02:10:10.028Z,21.80
2022-07-26T02:12:41.018Z,21.90
2022-07-26T02:15:10.885Z,21.70
2022-07-26T02:17:38.909Z,21.60
2022-07-26T02:20:09.279Z,21.60
2022-07-26T02:22:37.287Z,21.60
2022-07-26T02:25:06.326Z,21.40
2022-07-26T02:27:35.627Z,21.50
2022-07-26T02:30:03.600Z,21.50
2022-07-26T02:32:31.552Z,21.50
2022-07-26T02:34:59.481Z,21.60
2022-07-26T02:37:27.547Z,21.50
2022-07-26T02:39:55.468Z,21.40
2022-07-26T02:42:23.470Z,21.40
2022-07-26T02:44:54.058Z,21.40
2022-07-26T02:47:22.106Z,21.40
2022-07-26T02:49:50.054Z,21.40
2022-07-26T02:52:18.376Z,21.50
2022-07-26T02:54:46.341Z,21.60
2022-07-26T02:57:14.634Z,21.60
2022-07-26T02:59:42.588Z,21.60
2022-07-26T03:02:11.873Z,21.50
2022-07-26T03:04:39.853Z,21.50
2022-07-26T03:07:07.775Z,21.60
2022-07-26T03:09:35.739Z,21.50
2022-07-26T03:12:04.733Z,21.40
2022-07-26T03:14:32.636Z,21.50
2022-07-26T03:17:00.594Z,21.40
2022-07-26T03:19:29.951Z,21.50
2022-07-26T03:21:57.896Z,21.30
2022-07-26T03:24:25.788Z,21.20
2022-07-26T03:27:08.803Z,21.10
2022-07-26T03:29:37.590Z,21.10
2022-07-26T03:32:06.146Z,21.20
2022-07-26T03:34:35.636Z,21.20
2022-07-26T03:37:03.701Z,21.30
2022-07-26T03:39:31.827Z,21.20
2022-07-26T03:41:59.753Z,21.20
2022-07-26T03:44:27.672Z,21.00
2022-07-26T03:46:55.645Z,20.90
2022-07-26T03:49:23.671Z,20.70
2022-07-26T03:51:53.077Z,20.70
2022-07-26T03:54:20.998Z,20.60
2022-07-26T03:56:48.098Z,20.60
2022-07-26T03:59:17.974Z,20.30
2022-07-26T04:01:48.029Z,20.20
2022-07-26T04:04:18.362Z,20.00
2022-07-26T04:06:48.966Z,20.00
2022-07-26T04:09:18.241Z,19.90
2022-07-26T04:11:47.853Z,19.80
2022-07-26T04:14:16.177Z,19.90
2022-07-26T04:16:44.207Z,19.90
2022-07-26T04:19:12.440Z,19.90
2022-07-26T04:21:40.479Z,19.80
2022-07-26T04:24:09.889Z,19.80
2022-07-26T04:26:39.615Z,19.70
2022-07-26T04:29:08.311Z,19.70
2022-07-26T04:31:37.532Z,19.60
2022-07-26T04:34:06.171Z,19.70
2022-07-26T04:36:34.289Z,19.70
2022-07-26T04:39:02.185Z,19.70
2022-07-26T04:41:30.166Z,19.60
2022-07-26T04:43:59.417Z,19.60
2022-07-26T04:46:27.491Z,19.60
2022-07-26T04:48:55.555Z,19.50
2022-07-26T04:51:23.646Z,19.50
2022-07-26T04:53:51.965Z,19.70
2022-07-26T04:56:19.923Z,19.60
2022-07-26T04:58:47.991Z,19.60
2022-07-26T05:01:17.331Z,19.70
2022-07-26T05:03:45.312Z,19.70
2022-07-26T05:06:13.345Z,19.80
2022-07-26T05:08:43.166Z,19.80
2022-07-26T05:11:11.212Z,19.70
2022-07-26T05:13:39.180Z,19.70
2022-07-26T05:16:11.873Z,19.70
2022-07-26T05:18:45.492Z,19.80
2022-07-26T05:21:17.678Z,19.80
2022-07-26T05:23:45.683Z,19.80
2022-07-26T05:26:13.718Z,19.80
2022-07-26T05:28:42.133Z,19.90
2022-07-26T05:31:10.221Z,19.90
2022-07-26T05:33:38.255Z,20.00
2022-07-26T05:36:08.231Z,20.10
2022-07-26T05:38:36.196Z,20.10
2022-07-26T05:41:05.590Z,20.20
2022-07-26T05:43:40.850Z,20.10
2022-07-26T05:46:11.729Z,20.10
2022-07-26T05:48:40.526Z,20.20
2022-07-26T05:51:10.661Z,20.20
2022-07-26T05:53:39.681Z,20.10
2022-07-26T05:56:08.474Z,20.10
2022-07-26T05:58:37.286Z,20.20
2022-07-26T06:01:05.378Z,20.30
2022-07-26T06:03:33.409Z,20.40
2022-07-26T06:06:01.335Z,20.30
2022-07-26T06:08:30.715Z,20.50
2022-07-26T06:10:59.593Z,20.60
2022-07-26T06:13:27.532Z,20.70
2022-07-26T06:15:55.454Z,20.80
2022-07-26T06:18:23.451Z,20.90
2022-07-26T06:20:51.945Z,20.90
2022-07-26T06:23:33.532Z,20.80
2022-07-26T06:26:05.123Z,20.90
2022-07-26T06:28:33.873Z,20.90
2022-07-26T06:31:01.933Z,20.90
2022-07-26T06:33:29.953Z,21.00
2022-07-26T06:35:57.860Z,21.10
2022-07-26T06:38:25.963Z,21.20
2022-07-26T06:40:54.094Z,21.30
2022-07-26T06:43:23.384Z,21.30
2022-07-26T06:45:51.564Z,21.40
2022-07-26T06:48:19.941Z,21.50
2022-07-26T06:50:48.161Z,21.60
2022-07-26T06:53:16.097Z,21.70
2022-07-26T06:55:44.191Z,21.90
2022-07-26T06:58:13.884Z,22.00
2022-07-26T07:00:44.158Z,22.00
2022-07-26T07:03:12.219Z,22.20
2022-07-26T07:05:40.252Z,22.20
2022-07-26T07:08:08.326Z,22.40
2022-07-26T07:10:38.486Z,22.30
2022-07-26T07:13:06.521Z,22.50
2022-07-26T07:15:34.553Z,22.50
2022-07-26T07:18:03.894Z,22.50
2022-07-26T07:20:34.327Z,22.50
2022-07-26T07:23:02.319Z,22.50
2022-07-26T07:25:31.165Z,22.60
2022-07-26T07:27:59.962Z,22.60
2022-07-26T07:30:28.454Z,22.50
2022-07-26T07:32:56.774Z,22.50
2022-07-26T07:35:32.051Z,22.40
2022-07-26T07:38:01.369Z,22.40
2022-07-26T07:40:30.399Z,22.50
2022-07-26T07:42:59.153Z,22.60
2022-07-26T07:45:27.130Z,22.50
2022-07-26T07:47:55.134Z,22.40
2022-07-26T07:50:23.081Z,22.20
2022-07-26T07:52:57.904Z,22.50
2022-07-26T07:55:46.431Z,22.70
2022-07-26T07:58:14.381Z,22.60
2022-07-26T08:00:42.724Z,22.70
2022-07-26T08:03:10.672Z,22.80
2022-07-26T08:05:40.549Z,22.80
2022-07-26T08:08:10.333Z,22.60
2022-07-26T08:10:43.681Z,22.70
2022-07-26T08:13:21.541Z,22.90
2022-07-26T08:15:50.595Z,23.10
2022-07-26T08:18:21.698Z,23.20
2022-07-26T08:20:52.735Z,23.50
2022-07-26T08:23:23.270Z,23.50
2022-07-26T08:26:03.218Z,23.60
2022-07-26T08:28:59.433Z,23.90
2022-07-26T08:31:22.544Z,24.00
2022-07-26T08:33:50.729Z,24.10
2022-07-26T08:36:18.972Z,24.30
2022-07-26T08:38:48.672Z,24.20
2022-07-26T08:41:17.791Z,24.50
2022-07-26T08:43:52.342Z,24.50
2022-07-26T08:46:26.348Z,24.30
2022-07-26T08:48:55.106Z,24.20
2022-07-26T08:51:25.838Z,24.00
2022-07-26T08:54:04.668Z,23.90
2022-07-26T08:56:35.092Z,24.00
2022-07-26T08:59:18.771Z,24.10
2022-07-26T09:01:53.726Z,24.10
2022-07-26T09:04:34.008Z,24.10
2022-07-26T09:07:07.634Z,24.10
2022-07-26T09:09:40.693Z,24.10
2022-07-26T09:12:18.161Z,24.40
2022-07-26T09:14:48.039Z,24.70
2022-07-26T09:17:19.466Z,24.80
2022-07-26T09:20:05.748Z,24.50
2022-07-26T09:22:33.746Z,24.10
2022-07-26T09:25:03.063Z,24.20
2022-07-26T09:27:37.022Z,24.50
2022-07-26T09:30:09.228Z,24.80
2022-07-26T09:32:37.252Z,24.70
2022-07-26T09:35:45.443Z,24.60
2022-07-26T09:38:14.199Z,24.60
2022-07-26T09:40:46.737Z,24.30
2022-07-26T09:43:24.186Z,24.70
2022-07-26T09:46:06.937Z,24.70
2022-07-26T09:49:06.971Z,24.50
2022-07-26T09:51:44.667Z,24.80
2022-07-26T09:54:20.788Z,24.60
2022-07-26T09:56:52.649Z,24.50
2022-07-26T09:59:24.565Z,24.60
2022-07-26T10:01:58.122Z,24.80
2022-07-26T10:04:27.642Z,24.60
2022-07-26T10:06:57.854Z,24.40
2022-07-26T10:09:30.347Z,24.40
2022-07-26T10:12:03.923Z,24.40
2022-07-26T10:14:46.725Z,24.50
2022-07-26T10:17:49.346Z,24.90
2022-07-26T10:20:47.063Z,25.10
2022-07-26T10:23:42.720Z,24.80
2022-07-26T10:26:23.002Z,24.80
2022-07-26T10:28:52.778Z,25.20
2022-07-26T10:31:31.743Z,25.20
2022-07-26T10:34:02.434Z,25.00
2022-07-26T10:36:38.135Z,25.00
2022-07-26T10:39:13.274Z,24.80
2022-07-26T10:41:45.598Z,24.80
2022-07-26T10:44:25.056Z,25.10
2022-07-26T10:47:16.733Z,25.30
2022-07-26T10:49:57.630Z,25.50
2022-07-26T10:52:29.205Z,25.90
2022-07-26T10:55:18.317Z,26.20
2022-07-26T10:57:49.312Z,26.50
2022-07-26T11:00:23.577Z,26.30
2022-07-26T11:02:58.560Z,25.90
2022-07-26T11:05:31.872Z,25.50
2022-07-26T11:08:08.772Z,25.10
2022-07-26T11:10:40.381Z,25.00
2022-07-26T11:13:15.868Z,25.10
2022-07-26T11:15:48.564Z,25.50
2022-07-26T11:18:27.767Z,25.70
2022-07-26T11:20:57.979Z,25.70
2022-07-26T11:23:35.355Z,25.70
2022-07-26T11:26:16.877Z,25.70
2022-07-26T11:28:55.334Z,25.70
2022-07-26T11:31:55.501Z,25.90
2022-07-26T11:34:25.003Z,25.90
2022-07-26T11:36:56.798Z,26.30
2022-07-26T11:39:26.693Z,26.60
2022-07-26T11:41:59.973Z,26.70
2022-07-26T11:44:29.301Z,26.50
2022-07-26T11:46:59.305Z,26.40
2022-07-26T11:49:52.825Z,26.30
2022-07-26T11:52:25.102Z,26.20
2022-07-26T11:54:55.259Z,26.00
2022-07-26T11:57:29.217Z,26.10
2022-07-26T11:59:57.441Z,26.40
2022-07-26T12:02:29.145Z,26.80
2022-07-26T12:05:19.599Z,27.20
2022-07-26T12:07:57.425Z,27.50
2022-07-26T12:10:25.554Z,27.50
2022-07-26T12:13:09.592Z,27.50
2022-07-26T12:15:55.696Z,27.30
2022-07-26T12:18:28.032Z,27.40
2022-07-26T12:21:05.689Z,27.50
2022-07-26T12:23:49.276Z,27.60
2022-07-26T12:26:23.927Z,27.50
2022-07-26T12:28:52.265Z,27.20
2022-07-26T12:31:28.884Z,27.20
2022-07-26T12:33:59.436Z,27.00
2022-07-26T12:36:29.908Z,26.80
2022-07-26T12:38:59.581Z,26.60
2022-07-26T12:41:36.381Z,26.50
2022-07-26T12:44:05.868Z,26.30
2022-07-26T12:46:35.135Z,26.40
2022-07-26T12:49:05.702Z,26.60
2022-07-26T12:51:34.182Z,26.60
2022-07-26T12:54:03.466Z,26.80
2022-07-26T12:56:31.556Z,27.00
2022-07-26T12:59:01.351Z,27.00
2022-07-26T13:01:30.839Z,27.00
2022-07-26T13:03:58.961Z,27.20
2022-07-26T13:06:28.485Z,26.90
2022-07-26T13:08:57.419Z,26.80
2022-07-26T13:11:25.469Z,26.80
2022-07-26T13:13:53.642Z,26.40
2022-07-26T13:16:21.644Z,26.40
2022-07-26T13:18:49.748Z,26.40
2022-07-26T13:21:17.795Z,26.20
2022-07-26T13:23:47.194Z,26.30
2022-07-26T13:26:15.573Z,26.40
2022-07-26T13:28:44.466Z,26.50
2022-07-26T13:31:17.811Z,26.70
2022-07-26T13:33:45.999Z,26.80
2022-07-26T13:36:14.228Z,26.90
2022-07-26T13:38:42.947Z,27.00
2022-07-26T13:41:12.297Z,26.70
2022-07-26T13:43:40.292Z,26.30
2022-07-26T13:46:08.281Z,26.20
2022-07-26T13:48:36.435Z,26.20
2022-07-26T13:51:04.666Z,26.20
2022-07-26T13:53:32.762Z,26.30
2022-07-26T13:56:00.805Z,26.20
2022-07-26T13:58:30.169Z,26.00
2022-07-26T14:00:58.175Z,26.00
2022-07-26T14:03:27.368Z,26.20
2022-07-26T14:05:57.067Z,26.40
2022-07-26T14:08:25.233Z,26.40
2022-07-26T14:10:53.352Z,26.40
2022-07-26T14:13:21.346Z,26.50
2022-07-26T14:15:50.649Z,26.50
2022-07-26T14:18:18.644Z,26.50
2022-07-26T14:20:46.714Z,26.60
2022-07-26T14:23:15.071Z,26.70
2022-07-26T14:25:43.024Z,26.80
2022-07-26T14:28:10.999Z,26.90
2022-07-26T14:30:39.093Z,26.90
2022-07-26T14:33:09.503Z,26.90
2022-07-26T14:35:37.544Z,27.00
2022-07-26T14:38:05.533Z,27.00
2022-07-26T14:40:33.474Z,27.00
2022-07-26T14:43:01.612Z,26.90
2022-07-26T14:45:29.848Z,26.70
2022-07-26T14:47:57.806Z,26.60
2022-07-26T14:50:27.372Z,26.50
2022-07-26T14:52:56.616Z,26.50
2022-07-26T14:55:25.569Z,26.50
2022-07-26T14:57:53.887Z,26.50
2022-07-26T15:00:21.855Z,26.40
2022-07-26T15:02:50.718Z,26.40
2022-07-26T15:05:19.527Z,26.50
2022-07-26T15:07:49.168Z,26.50
2022-07-26T15:10:17.665Z,26.50
2022-07-26T15:12:45.674Z,26.60
2022-07-26T15:15:13.656Z,26.60
2022-07-26T15:17:41.613Z,26.60
2022-07-26T15:20:10.028Z,26.60
2022-07-26T15:22:38.011Z,26.60
2022-07-26T15:25:08.939Z,26.50
2022-07-26T15:27:36.944Z,26.50
2022-07-26T15:30:11.624Z,26.50
2022-07-26T15:32:42.475Z,26.50
2022-07-26T15:35:14.317Z,26.40
2022-07-26T15:37:44.660Z,26.30
2022-07-26T15:40:14.437Z,26.40
2022-07-26T15:42:45.766Z,26.30
2022-07-26T15:45:14.697Z,26.30
2022-07-26T15:47:54.705Z,26.30
2022-07-26T15:50:24.147Z,26.30
2022-07-26T15:52:52.215Z,26.40
2022-07-26T15:55:21.990Z,26.40
2022-07-26T15:57:50.011Z,26.30
2022-07-26T16:00:18.868Z,26.20
2022-07-26T16:02:47.008Z,26.20
2022-07-26T16:05:16.152Z,26.30
2022-07-26T16:07:46.183Z,26.20
2022-07-26T16:10:16.214Z,26.30
2022-07-26T16:12:45.542Z,26.10
2022-07-26T16:15:14.136Z,26.30
2022-07-26T16:17:42.157Z,26.30
2022-07-26T16:20:11.051Z,26.40
2022-07-26T16:22:41.744Z,26.40
2022-07-26T16:25:13.544Z,26.40
2022-07-26T16:27:43.759Z,26.30
2022-07-26T16:30:15.426Z,26.30
2022-07-26T16:32:43.859Z,26.20
2022-07-26T16:35:12.575Z,26.00
2022-07-26T16:37:44.017Z,25.80
2022-07-26T16:40:13.139Z,25.80
2022-07-26T16:42:41.053Z,25.70
2022-07-26T16:45:10.238Z,25.70
2022-07-26T16:47:42.637Z,25.60
2022-07-26T16:50:11.555Z,25.60
2022-07-26T16:52:39.502Z,25.60
2022-07-26T16:55:11.117Z,25.60
2022-07-26T16:57:39.487Z,25.60
2022-07-26T17:00:11.534Z,25.70
2022-07-26T17:02:44.544Z,25.60
2022-07-26T17:05:12.613Z,25.50
2022-07-26T17:07:40.670Z,25.50
2022-07-26T17:10:10.993Z,25.50
2022-07-26T17:12:39.495Z,25.50
2022-07-26T17:15:10.264Z,25.40
2022-07-26T17:17:45.698Z,25.40
2022-07-26T17:20:17.935Z,25.40
2022-07-26T17:22:46.147Z,25.40
2022-07-26T17:25:14.176Z,25.40
2022-07-26T17:27:42.645Z,25.30
2022-07-26T17:30:12.815Z,25.20
2022-07-26T17:32:41.124Z,25.10
2022-07-26T17:35:10.449Z,25.10
2022-07-26T17:37:40.010Z,25.10
2022-07-26T17:40:10.350Z,25.00
2022-07-26T17:42:39.102Z,25.00
2022-07-26T17:45:09.141Z,25.00
2022-07-26T17:47:37.070Z,25.00
2022-07-26T17:50:34.102Z,25.00
2022-07-26T17:52:57.467Z,24.90
2022-07-26T17:55:25.541Z,24.80
2022-07-26T17:57:53.830Z,24.70
2022-07-26T18:00:29.001Z,24.70
2022-07-26T18:02:57.867Z,24.60
2022-07-26T18:05:32.541Z,24.60
2022-07-26T18:08:04.688Z,24.50
2022-07-26T18:10:32.696Z,24.50
2022-07-26T18:13:00.781Z,24.60
2022-07-26T18:15:28.770Z,24.50
2022-07-26T18:17:56.748Z,24.40
2022-07-26T18:20:24.717Z,24.40
2022-07-26T18:22:53.664Z,24.30
2022-07-26T18:25:23.078Z,24.30
2022-07-26T18:27:51.026Z,24.30
2022-07-26T18:30:19.011Z,24.20
2022-07-26T18:32:47.081Z,24.20
2022-07-26T18:35:15.053Z,24.10
2022-07-26T18:37:42.968Z,24.10
2022-07-26T18:40:11.667Z,24.00
2022-07-26T18:42:40.975Z,24.00
2022-07-26T18:45:09.724Z,23.90
2022-07-26T18:47:37.732Z,23.90
2022-07-26T18:50:07.939Z,23.80
2022-07-26T18:52:36.316Z,23.70
2022-07-26T18:55:07.978Z,23.70
2022-07-26T18:57:37.536Z,23.60
2022-07-26T19:00:09.642Z,23.60
2022-07-26T19:02:37.594Z,23.50
2022-07-26T19:05:06.526Z,23.50
2022-07-26T19:07:37.504Z,23.60
2022-07-26T19:10:07.221Z,23.50
2022-07-26T19:12:35.709Z,23.50
2022-07-26T19:15:07.173Z,23.40
2022-07-26T19:17:37.197Z,23.30
2022-07-26T19:20:07.483Z,23.20
2022-07-26T19:22:36.179Z,23.20
2022-07-26T19:25:06.191Z,23.20
2022-07-26T19:27:34.388Z,23.10
2022-07-26T19:30:02.519Z,23.00
2022-07-26T19:32:33.664Z,23.00
2022-07-26T19:35:01.975Z,23.00
2022-07-26T19:37:30.052Z,23.00
2022-07-26T19:40:00.346Z,22.90
2022-07-26T19:42:31.225Z,22.90
2022-07-26T19:44:59.951Z,22.90
2022-07-26T19:47:29.683Z,22.80
2022-07-26T19:49:59.057Z,22.80
2022-07-26T19:52:26.970Z,22.70
2022-07-26T19:54:55.020Z,22.70
2022-07-26T19:57:23.325Z,22.60
2022-07-26T19:59:51.699Z,22.50
2022-07-26T20:02:19.819Z,22.50
2022-07-26T20:04:50.888Z,22.60
2022-07-26T20:07:20.161Z,22.50
2022-07-26T20:09:48.949Z,22.50
2022-07-26T20:12:17.817Z,22.50
2022-07-26T20:14:46.437Z,22.50
2022-07-26T20:17:15.553Z,22.40
2022-07-26T20:19:43.817Z,22.40
2022-07-26T20:22:12.151Z,22.40
2022-07-26T20:24:41.504Z,22.40
2022-07-26T20:27:10.076Z,22.40
2022-07-26T20:29:38.052Z,22.40
2022-07-26T20:32:07.361Z,22.40
2022-07-26T20:34:35.300Z,22.30
2022-07-26T20:37:03.237Z,22.30
2022-07-26T20:39:31.277Z,22.10
2022-07-26T20:42:01.779Z,22.00
2022-07-26T20:44:29.837Z,21.90
2022-07-26T20:46:57.785Z,21.90
2022-07-26T20:49:25.918Z,22.00
2022-07-26T20:51:54.173Z,22.00
2022-07-26T20:54:22.223Z,22.00
2022-07-26T20:56:50.767Z,22.00
2022-07-26T20:59:20.030Z,21.90
2022-07-26T21:01:48.109Z,21.90
2022-07-26T21:04:16.094Z,21.90
2022-07-26T21:06:44.251Z,21.60
2022-07-26T21:09:12.787Z,21.70
2022-07-26T21:11:41.171Z,21.60
2022-07-26T21:14:09.169Z,21.70
2022-07-26T21:16:38.705Z,21.70
2022-07-26T21:19:06.845Z,21.70
2022-07-26T21:21:36.889Z,21.70
2022-07-26T21:24:06.316Z,21.70
2022-07-26T21:26:34.705Z,21.50
2022-07-26T21:29:02.665Z,21.30
2022-07-26T21:31:30.767Z,21.20
2022-07-26T21:34:00.138Z,21.10
2022-07-26T21:36:28.180Z,21.10
2022-07-26T21:38:56.223Z,21.30
2022-07-26T21:41:24.251Z,21.40
2022-07-26T21:43:52.208Z,21.40
2022-07-26T21:46:20.620Z,21.50
2022-07-26T21:48:48.609Z,21.50
2022-07-26T21:51:18.085Z,21.50
2022-07-26T21:53:46.366Z,21.50
2022-07-26T21:56:14.545Z,21.50
2022-07-26T21:58:42.485Z,21.40
2022-07-26T22:01:12.545Z,21.40
2022-07-26T22:03:43.247Z,21.40
2022-07-26T22:06:12.453Z,21.40
2022-07-26T22:08:41.843Z,21.40
2022-07-26T22:11:09.921Z,21.30
2022-07-26T22:13:38.116Z,21.30
2022-07-26T22:16:07.211Z,21.20
2022-07-26T22:18:35.299Z,21.10
2022-07-26T22:21:03.480Z,21.10
2022-07-26T22:23:31.607Z,21.10
2022-07-26T22:26:03.792Z,21.10
2022-07-26T22:28:33.085Z,21.10
2022-07-26T22:31:02.261Z,21.00
2022-07-26T22:33:30.261Z,21.00
2022-07-26T22:35:58.209Z,20.90
2022-07-26T22:38:26.250Z,21.00
2022-07-26T22:40:54.197Z,20.90
2022-07-26T22:43:23.454Z,20.90
2022-07-26T22:45:51.645Z,20.90
2022-07-26T22:48:19.793Z,20.90
2022-07-26T22:50:47.867Z,20.90
2022-07-26T22:53:16.328Z,20.90
2022-07-26T22:55:44.261Z,20.90
2022-07-26T22:58:14.759Z,20.80
2022-07-26T23:00:44.235Z,20.90
2022-07-26T23:03:19.898Z,20.90
2022-07-26T23:05:50.136Z,20.90
2022-07-26T23:11:07.149Z,20.80
2022-07-26T23:13:35.435Z,20.80
2022-07-26T23:16:05.395Z,20.80
2022-07-26T23:18:35.183Z,20.70
2022-07-26T23:21:03.859Z,20.70
2022-07-26T23:23:32.490Z,20.70
2022-07-26T23:26:01.217Z,20.60
2022-07-26T23:28:36.982Z,20.50
2022-07-26T23:31:09.508Z,20.50
2022-07-26T23:33:52.741Z,20.50
2022-07-26T23:36:27.386Z,20.50
2022-07-26T23:38:56.626Z,20.40
2022-07-26T23:41:25.391Z,20.40
2022-07-26T23:43:54.127Z,20.40
2022-07-26T23:46:24.804Z,20.30
2022-07-26T23:48:53.639Z,20.30
2022-07-26T23:51:22.920Z,20.30
2022-07-26T23:53:51.466Z,20.30
2022-07-26T23:56:19.745Z,20.30
2022-07-26T23:58:47.738Z,20.20
